• Join FlightAware (Why Join?)
  • Login
  • US Flag 
08:21AM EDT


 

Airport Tracker/Info


-or-


 

Live Flight TrackerFlight Track Log ✈ AMF1961 ✈ 20-Sep-2013 ✈ KBLI - KBFI

Flight Track Log - Related Links

Times and Time Zones

All times are in EDT time to prevent confusion due to time zone crossing. See the AMF1961 flight status page for this flight to view local times or setup timezone preferences in your user account.

Time Position Orientation Groundspeed Altitude Reporting Facility
EDT Latitude Longitude Course Direction KTS MPH feet Rate Location/Type
08:55PM 48.7667 -122.5333 202° Southwest 140 161 1,200  Level Vancouver Center
08:56PM 48.7167 -122.5667 204° Southwest 160 184 3,200 1,800 Climbing Vancouver Center
08:57PM 48.6833 -122.5667 180° South 160 184 4,900 840 Climbing Vancouver Center
08:58PM 48.6167 -122.5833 189° South 190 219 5,000  Climbing Vancouver Center
08:59PM 48.6086 -122.5967 228° Southwest 222 255 4,900 -120 Descending Seattle Center
09:00PM 48.3991 -122.4629 184° South  Level Estimated
09:00PM 48.5456 -122.6200 194° South 226 260 4,900  Level Seattle Center
09:00PM 48.5389 -122.6231 197° South 203 234 4,900  Level Seattle Center
09:01PM 48.3468 -122.4954 202° Southwest  Level FlightAware Approximate
09:01PM 48.4850 -122.6450 195° South 225 259 4,900  Level Seattle Center
09:01PM 48.4753 -122.6444 178° South 227 261 4,900  Level Seattle Center
09:02PM 48.4256 -122.6658 196° South 224 258 4,900  Level Seattle Center
09:02PM 48.4175 -122.6672 187° South 224 258 4,900  Level Seattle Center
09:03PM 48.3664 -122.6864 194° South 224 258 4,900  Level Seattle Center
09:03PM 48.3556 -122.6869 182° South 226 260 4,900  Level Seattle Center
09:04PM 48.3031 -122.7094 196° South 227 261 4,900 60 Level Seattle Center
09:04PM 48.2919 -122.7111 186° South 225 259 5,000  Climbing Seattle Center
09:05PM 48.2436 -122.7303 195° South 223 257 4,900  Descending Seattle Center
09:05PM 48.2331 -122.7314 184° South 218 251 5,000 360 Climbing Seattle Center
09:05PM 48.2247 -122.7331 188° South 221 254 5,000  Level Seattle Center
09:06PM 48.1669 -122.7450 188° South 222 255 5,000  Level Seattle Center
09:06PM 48.1636 -122.7467 198° South 216 249 5,000  Level Seattle Center
09:07PM 48.1078 -122.7558 186° South 218 251 5,000  Level Seattle Center
09:07PM 48.1028 -122.7603 211° Southwest 223 257 5,000  Level Seattle Center
09:08PM 48.0472 -122.7372 164° South 226 260 5,000 60 Level Seattle Center
09:08PM 48.0436 -122.7364 171° South 224 258 5,100 60 Climbing Seattle Center
09:09PM 47.9939 -122.6978 153° Southeast 217 250 5,100 -120 Level Seattle Center
09:09PM 47.9881 -122.6908 141° Southeast 218 251 5,000 -420 Descending Seattle Center
09:10PM 47.9425 -122.6517 150° Southeast 215 247 4,700 -420 Descending Seattle Center
09:10PM 47.9378 -122.6489 158° South 213 245 4,600 -1,140 Descending Seattle Center
09:11PM 47.8892 -122.6097 152° Southeast 216 249 3,600 -1,200 Descending Seattle Center
09:11PM 47.8761 -122.5972 147° Southeast 220 253 3,300 -900 Descending Seattle Center
09:12PM 47.8328 -122.5597 150° Southeast 220 253 2,700 -840 Descending Seattle Center
09:12PM 47.8250 -122.5525 148° Southeast 217 250 2,500 -540 Descending Seattle Center
09:13PM 47.7817 -122.5164 151° Southeast 213 245 2,200 -240 Descending Seattle Center
09:13PM 47.7739 -122.5083 145° Southeast 212 244 2,300  Climbing Seattle Center
09:14PM 47.7306 -122.4733 151° Southeast 212 244 2,200 -120 Descending Seattle Center
09:14PM 47.7269 -122.4714 160° South 210 242 2,200 60 Level Seattle Center
09:15PM 47.6797 -122.4317 150° Southeast 210 242 2,300 60 Climbing Seattle Center
09:15PM 47.6778 -122.4261 117° Southeast 229 264 2,300 -420 Level Seattle Center
09:16PM 47.6289 -122.3858 151° Southeast 213 245 1,900 -540 Descending Seattle Center
09:16PM 47.6247 -122.3831 156° South 218 251 1,800 -780 Descending Seattle Center
09:18PM 47.5769 -122.3436 151° Southeast 156 180 1,000 -780 Descending Seattle Center
09:18PM 47.5517 -122.3217 150° Southeast 140 161 400 -600 Descending Seattle Center
09:19PM 47.5481 -122.3169 139° Southeast 134 154 400  Level Seattle Center